Time;durP1;ratioP1;P1;durP2;ratioP2;P2;SDS_P1;SDS_P2;PMS_P1;PMS_P2;Temp;Humidity;BMP_temperature;BMP_pressure;BME280_temperature;BME280_humidity;BME280_pressure;Samples;Min_cycle;Max_cycle;Signal;HPM_P1;HPM_P2
2022/03/31 00:00:40;;;;;;;2.70;1.00;;;4.30;99.90;;;;;;5012465;28;20486;-68
2022/03/31 00:03:08;;;;;;;3.75;1.67;;;4.30;99.90;;;;;;5028202;28;20033;-68
2022/03/31 00:05:34;;;;;;;4.90;1.00;;;4.30;99.90;;;;;;5012504;28;20070;-68
2022/03/31 00:08:06;;;;;;;4.85;1.20;;;4.30;99.90;;;;;;5011546;28;20168;-67
2022/03/31 00:10:36;;;;;;;7.53;1.70;;;4.30;99.90;;;;;;5012757;28;20442;-68
2022/03/31 00:13:04;;;;;;;3.45;0.90;;;4.30;99.90;;;;;;5020678;28;20405;-67
2022/03/31 00:15:30;;;;;;;2.95;0.90;;;4.30;99.90;;;;;;5032079;28;20051;-68
2022/03/31 00:18:00;;;;;;;4.82;1.60;;;4.20;99.90;;;;;;5047465;28;20116;-68
2022/03/31 00:33:54;;;;;;;7.93;1.23;;;4.20;99.90;;;;;;5028443;28;20046;-68
2022/03/31 00:36:20;;;;;;;3.50;0.90;;;4.30;99.90;;;;;;5012673;28;20507;-68
2022/03/31 00:39:28;;;;;;;2.72;0.85;;;4.20;99.90;;;;;;5031670;28;20071;-68
2022/03/31 00:41:38;;;;;;;3.03;1.02;;;4.20;99.90;;;;;;5030539;28;20037;-68
2022/03/31 00:44:05;;;;;;;1.80;1.02;;;4.20;99.90;;;;;;5031806;28;20045;-68
2022/03/31 00:46:31;;;;;;;2.50;0.90;;;4.30;99.90;;;;;;5047447;28;20045;-68
2022/03/31 00:48:56;;;;;;;4.00;1.15;;;4.20;99.90;;;;;;5031904;28;20508;-68
2022/03/31 00:51:22;;;;;;;6.13;0.90;;;4.20;99.90;;;;;;5031648;28;20072;-67
2022/03/31 00:53:48;;;;;;;3.90;0.90;;;4.30;99.90;;;;;;5030946;28;20493;-67
2022/03/31 00:56:16;;;;;;;3.22;1.20;;;4.30;99.90;;;;;;5032957;28;20151;-68
2022/03/31 00:58:43;;;;;;;2.22;0.80;;;4.20;99.90;;;;;;5047522;28;20480;-68
2022/03/31 01:01:10;;;;;;;2.40;0.80;;;4.20;99.90;;;;;;5034318;28;20383;-68
2022/03/31 01:03:36;;;;;;;2.78;0.93;;;4.30;99.90;;;;;;5035512;28;20048;-67
2022/03/31 01:06:02;;;;;;;4.63;0.98;;;4.30;99.90;;;;;;5034354;28;20041;-67
2022/03/31 01:08:27;;;;;;;3.53;0.98;;;4.30;99.90;;;;;;5035324;28;20037;-68
2022/03/31 01:10:53;;;;;;;4.97;1.15;;;4.20;99.90;;;;;;5034367;28;20124;-68
2022/03/31 01:13:19;;;;;;;4.28;1.17;;;4.20;99.90;;;;;;5051977;28;20090;-67
2022/03/31 01:15:45;;;;;;;5.50;2.15;;;4.20;99.90;;;;;;5034303;28;20451;-67
2022/03/31 01:18:11;;;;;;;5.65;1.33;;;4.30;99.90;;;;;;5050997;28;20060;-68
2022/03/31 01:20:36;;;;;;;2.90;1.10;;;4.30;99.90;;;;;;5034186;28;20038;-68
2022/03/31 01:23:04;;;;;;;6.55;1.42;;;4.30;99.90;;;;;;5018746;28;20036;-67
2022/03/31 01:25:29;;;;;;;5.03;1.40;;;4.30;99.90;;;;;;5045618;28;20406;-68
2022/03/31 01:27:55;;;;;;;4.70;1.40;;;4.20;99.90;;;;;;5015288;28;20030;-68
2022/03/31 01:30:22;;;;;;;3.33;1.10;;;4.30;99.90;;;;;;5020833;28;20040;-68
2022/03/31 01:32:49;;;;;;;3.88;1.30;;;4.20;99.90;;;;;;5018577;28;20042;-68
2022/03/31 01:35:16;;;;;;;4.20;1.20;;;4.20;99.90;;;;;;5034209;28;20481;-68
2022/03/31 01:37:45;;;;;;;3.90;1.33;;;4.20;99.90;;;;;;5033992;28;20037;-68
2022/03/31 01:40:11;;;;;;;6.80;1.58;;;4.20;99.90;;;;;;5034846;28;20091;-67
2022/03/31 01:42:38;;;;;;;4.45;1.58;;;4.30;99.90;;;;;;5034751;28;20041;-68
2022/03/31 01:45:05;;;;;;;3.80;1.30;;;4.20;99.90;;;;;;5033679;28;20040;-68
2022/03/31 01:47:31;;;;;;;5.10;1.40;;;4.20;99.90;;;;;;5050616;28;20536;-67
2022/03/31 01:49:57;;;;;;;5.53;1.73;;;4.30;99.90;;;;;;5033505;28;20045;-68
2022/03/31 01:52:23;;;;;;;5.88;1.90;;;4.20;99.90;;;;;;5034912;28;20042;-68
2022/03/31 01:54:49;;;;;;;5.82;1.50;;;4.30;99.90;;;;;;5016321;28;20506;-68
2022/03/31 01:57:15;;;;;;;5.03;1.60;;;4.30;99.90;;;;;;5030866;28;20080;-68
2022/03/31 01:59:41;;;;;;;5.93;1.70;;;4.30;99.90;;;;;;5016843;28;20409;-68
2022/03/31 02:02:08;;;;;;;6.25;2.00;;;4.20;99.90;;;;;;5027441;28;20041;-67
2022/03/31 02:04:34;;;;;;;6.18;1.92;;;4.20;99.90;;;;;;5014973;28;20447;-68
2022/03/31 02:07:00;;;;;;;5.63;1.75;;;4.20;99.90;;;;;;5014867;28;20061;-67
2022/03/31 02:09:26;;;;;;;6.75;2.20;;;4.20;99.90;;;;;;5017682;28;20124;-68
2022/03/31 02:11:52;;;;;;;5.28;2.10;;;4.20;99.90;;;;;;5034241;28;20124;-68
2022/03/31 02:14:22;;;;;;;5.38;1.95;;;4.30;99.90;;;;;;5028209;28;20029;-68
2022/03/31 02:16:48;;;;;;;4.35;1.85;;;4.30;99.90;;;;;;5023213;28;20129;-68
2022/03/31 02:19:14;;;;;;;6.30;2.10;;;4.30;99.90;;;;;;5013460;28;20125;-68
2022/03/31 02:21:40;;;;;;;4.90;1.85;;;4.30;99.90;;;;;;5032679;28;20068;-67
2022/03/31 02:24:08;;;;;;;8.07;1.85;;;4.20;99.90;;;;;;5032920;28;20065;-67
2022/03/31 02:26:38;;;;;;;5.82;2.35;;;4.20;99.90;;;;;;5049370;28;20042;-67
2022/03/31 02:29:04;;;;;;;5.57;2.13;;;4.10;99.90;;;;;;5017282;28;20038;-67
2022/03/31 02:31:31;;;;;;;7.93;2.40;;;4.10;99.90;;;;;;5048996;28;20034;-68
2022/03/31 02:33:56;;;;;;;8.40;2.70;;;4.10;99.90;;;;;;5016760;28;20033;-68
2022/03/31 02:36:23;;;;;;;7.60;2.90;;;4.10;99.90;;;;;;5029591;28;20106;-67
2022/03/31 02:38:48;;;;;;;9.38;3.70;;;4.20;99.90;;;;;;5014882;28;20055;-68
2022/03/31 02:41:14;;;;;;;9.65;3.50;;;4.10;99.90;;;;;;5016305;28;20034;-68
2022/03/31 02:43:39;;;;;;;9.10;3.83;;;4.10;99.90;;;;;;5014794;28;20128;-68
2022/03/31 02:46:05;;;;;;;6.30;3.70;;;4.00;99.90;;;;;;5020292;28;20034;-68
2022/03/31 02:48:31;;;;;;;6.95;3.70;;;4.00;99.90;;;;;;5015806;28;20041;-68
2022/03/31 02:50:57;;;;;;;8.05;3.92;;;4.00;99.90;;;;;;5032699;28;20461;-68
2022/03/31 02:56:26;;;;;;;11.20;5.25;;;4.00;99.90;;;;;;5011894;28;20041;-68
2022/03/31 02:58:52;;;;;;;10.85;5.20;;;4.00;99.90;;;;;;4995216;28;20076;-68
2022/03/31 03:01:17;;;;;;;9.07;4.72;;;4.00;99.90;;;;;;5009347;28;20050;-67
2022/03/31 03:03:43;;;;;;;8.68;5.25;;;4.00;99.90;;;;;;5016257;28;20045;-68
2022/03/31 03:06:09;;;;;;;9.48;5.38;;;4.10;99.90;;;;;;5032110;28;20107;-68
2022/03/31 03:08:35;;;;;;;9.77;5.70;;;4.20;99.90;;;;;;5014872;28;20064;-68
2022/03/31 03:11:00;;;;;;;11.52;6.32;;;4.10;99.90;;;;;;5049574;28;20080;-68
2022/03/31 03:13:26;;;;;;;11.25;6.93;;;4.10;99.90;;;;;;5032972;28;20033;-68
2022/03/31 03:15:51;;;;;;;11.23;6.28;;;4.00;99.90;;;;;;5032633;28;20041;-68
2022/03/31 03:18:18;;;;;;;9.90;5.75;;;4.00;99.90;;;;;;5011842;28;20038;-68
2022/03/31 03:20:44;;;;;;;8.05;5.28;;;4.00;99.90;;;;;;5028760;28;20057;-68
2022/03/31 03:23:10;;;;;;;10.52;5.90;;;3.90;99.90;;;;;;5048055;28;20033;-68
2022/03/31 03:25:36;;;;;;;8.32;5.30;;;4.00;99.90;;;;;;5015580;28;20080;-68
2022/03/31 03:28:02;;;;;;;8.40;5.20;;;4.00;99.90;;;;;;5015702;28;20060;-68
2022/03/31 03:30:27;;;;;;;9.70;5.43;;;4.00;99.90;;;;;;5031658;28;20515;-68
2022/03/31 03:32:53;;;;;;;8.18;4.60;;;4.00;99.90;;;;;;5015634;28;20056;-68
2022/03/31 03:35:19;;;;;;;8.18;5.10;;;4.00;99.90;;;;;;5025515;28;20091;-68
2022/03/31 03:37:45;;;;;;;8.13;4.88;;;3.90;99.90;;;;;;5020922;28;20117;-68
2022/03/31 03:40:13;;;;;;;6.93;4.22;;;4.00;99.90;;;;;;5013659;28;20044;-68
2022/03/31 03:42:39;;;;;;;9.55;4.15;;;4.00;99.90;;;;;;5012503;28;20092;-68
2022/03/31 03:45:06;;;;;;;6.70;3.88;;;4.00;99.90;;;;;;5022641;28;20037;-68
2022/03/31 03:47:32;;;;;;;7.50;4.32;;;4.00;99.90;;;;;;5014788;28;20079;-68
2022/03/31 03:49:58;;;;;;;8.82;5.20;;;4.00;99.90;;;;;;5031168;28;20041;-68
2022/03/31 03:52:24;;;;;;;7.60;4.57;;;3.90;99.90;;;;;;5032443;28;20426;-68
2022/03/31 03:54:51;;;;;;;8.73;5.40;;;3.90;99.90;;;;;;5031151;28;20117;-68
2022/03/31 03:57:17;;;;;;;8.10;4.88;;;3.90;99.90;;;;;;5021814;28;20450;-68
2022/03/31 03:59:42;;;;;;;8.95;5.22;;;3.90;99.90;;;;;;5019652;28;20116;-68
2022/03/31 04:02:08;;;;;;;10.57;6.03;;;3.90;99.90;;;;;;5019237;28;20112;-68
2022/03/31 04:04:34;;;;;;;9.73;5.95;;;4.00;99.90;;;;;;5027910;28;20095;-69
2022/03/31 04:07:00;;;;;;;9.38;6.10;;;4.00;99.90;;;;;;5031022;28;20033;-68
2022/03/31 04:09:25;;;;;;;9.05;5.88;;;3.90;99.90;;;;;;5030016;28;20029;-68
2022/03/31 04:11:51;;;;;;;8.90;5.78;;;3.90;99.90;;;;;;5024312;28;20037;-68
2022/03/31 04:14:17;;;;;;;8.23;5.00;;;3.90;99.90;;;;;;5018005;28;20433;-68
2022/03/31 04:16:43;;;;;;;8.00;5.30;;;4.00;99.90;;;;;;5031875;28;20041;-68
2022/03/31 04:19:09;;;;;;;7.78;4.93;;;3.90;99.90;;;;;;5013037;28;20134;-68
2022/03/31 04:21:36;;;;;;;7.72;4.53;;;3.90;99.90;;;;;;5030858;28;20034;-68
2022/03/31 04:24:03;;;;;;;7.70;4.80;;;3.90;99.90;;;;;;5023891;28;20042;-68
2022/03/31 04:26:29;;;;;;;8.23;5.28;;;3.90;99.90;;;;;;5011787;28;20091;-68
2022/03/31 04:28:55;;;;;;;7.88;4.90;;;3.80;99.90;;;;;;5013592;28;20037;-68
2022/03/31 04:31:21;;;;;;;7.90;4.53;;;3.80;99.90;;;;;;5010906;28;20061;-68
2022/03/31 04:33:46;;;;;;;8.60;4.80;;;3.90;99.90;;;;;;5028251;28;20033;-68
2022/03/31 04:36:12;;;;;;;8.52;5.25;;;4.00;99.90;;;;;;5030695;28;20049;-68
2022/03/31 04:38:38;;;;;;;7.32;4.70;;;3.90;99.90;;;;;;5048712;28;20049;-68
2022/03/31 04:41:03;;;;;;;8.15;5.18;;;3.90;99.90;;;;;;5011002;28;20040;-68
2022/03/31 04:43:29;;;;;;;9.48;5.38;;;4.00;99.90;;;;;;5028950;28;20045;-68
2022/03/31 04:45:55;;;;;;;8.90;5.22;;;4.00;99.90;;;;;;5024009;28;20121;-68
2022/03/31 04:48:21;;;;;;;8.45;5.57;;;4.00;99.90;;;;;;5032011;28;20124;-68
2022/03/31 04:50:46;;;;;;;8.60;5.75;;;3.90;99.90;;;;;;5030433;28;20508;-68
2022/03/31 04:53:14;;;;;;;7.65;5.07;;;3.90;99.90;;;;;;5014220;28;20136;-68
2022/03/31 04:55:40;;;;;;;8.32;5.65;;;3.90;99.90;;;;;;5030573;28;20116;-68
2022/03/31 04:58:06;;;;;;;9.45;6.47;;;3.90;99.90;;;;;;5014404;28;20042;-68
2022/03/31 05:00:31;;;;;;;9.82;6.03;;;3.90;99.90;;;;;;5029696;28;20067;-68
2022/03/31 05:02:59;;;;;;;8.57;5.95;;;3.90;99.90;;;;;;5015435;28;20042;-68
2022/03/31 05:05:25;;;;;;;9.00;6.20;;;3.80;99.90;;;;;;5015369;28;20406;-68
2022/03/31 05:07:50;;;;;;;10.13;6.22;;;3.80;99.90;;;;;;5013455;28;20046;-67
2022/03/31 05:10:16;;;;;;;8.95;6.50;;;3.80;99.90;;;;;;5016470;28;20048;-68
2022/03/31 05:12:42;;;;;;;9.25;6.00;;;3.80;99.90;;;;;;5012479;28;20037;-68
2022/03/31 05:15:08;;;;;;;8.63;6.05;;;3.80;99.90;;;;;;5014654;28;20508;-68
2022/03/31 05:17:35;;;;;;;10.48;6.13;;;3.80;99.90;;;;;;5031469;28;20393;-68
2022/03/31 05:20:09;;;;;;;9.63;6.75;;;3.80;99.90;;;;;;5013981;28;20041;-68
2022/03/31 05:22:35;;;;;;;8.90;6.50;;;3.90;99.90;;;;;;5014748;28;20038;-68
2022/03/31 05:25:02;;;;;;;11.50;6.30;;;3.80;99.90;;;;;;5014841;28;20041;-68
2022/03/31 05:27:27;;;;;;;8.30;5.70;;;3.80;99.90;;;;;;5013354;28;20037;-68
2022/03/31 05:29:53;;;;;;;8.98;5.75;;;3.80;99.90;;;;;;5014315;28;20034;-67
2022/03/31 05:32:18;;;;;;;8.75;6.07;;;3.80;99.90;;;;;;5012616;28;20037;-67
2022/03/31 05:34:44;;;;;;;7.95;5.60;;;3.80;99.90;;;;;;5014102;28;20037;-67
2022/03/31 05:37:10;;;;;;;8.65;5.90;;;3.80;99.90;;;;;;5031302;28;20124;-67
2022/03/31 05:39:35;;;;;;;8.00;5.45;;;3.80;99.90;;;;;;5029074;28;20095;-67
2022/03/31 05:42:02;;;;;;;9.25;5.50;;;3.90;99.90;;;;;;5023504;28;20037;-67
2022/03/31 05:44:28;;;;;;;8.20;5.50;;;3.90;99.90;;;;;;5027196;28;20064;-67
2022/03/31 05:46:53;;;;;;;7.82;5.30;;;3.80;99.90;;;;;;5024955;28;20033;-67
2022/03/31 05:49:19;;;;;;;8.45;5.75;;;3.80;99.90;;;;;;5012634;28;20095;-67
2022/03/31 05:51:45;;;;;;;7.50;5.30;;;3.90;99.90;;;;;;5033443;28;20042;-67
2022/03/31 05:54:11;;;;;;;8.80;5.32;;;3.80;99.90;;;;;;5034128;28;20058;-67
2022/03/31 05:56:36;;;;;;;7.18;4.53;;;3.80;99.90;;;;;;5040427;28;20121;-67
2022/03/31 05:59:02;;;;;;;6.70;4.50;;;3.80;99.90;;;;;;4998608;28;20046;-67
2022/03/31 06:01:27;;;;;;;7.55;5.10;;;3.80;99.90;;;;;;5015623;28;20045;-67
2022/03/31 06:03:55;;;;;;;6.28;4.25;;;3.70;99.90;;;;;;5016243;28;20397;-67
2022/03/31 06:06:20;;;;;;;6.82;4.35;;;3.80;99.90;;;;;;5025624;28;20482;-67
2022/03/31 06:08:46;;;;;;;6.47;4.55;;;3.80;99.90;;;;;;5029652;28;20056;-67
2022/03/31 06:11:11;;;;;;;6.22;4.40;;;3.80;99.90;;;;;;5013442;28;20046;-67
2022/03/31 06:13:37;;;;;;;6.57;3.95;;;3.70;99.90;;;;;;5033169;28;20505;-67
2022/03/31 06:16:03;;;;;;;5.93;4.25;;;3.90;99.90;;;;;;5014190;28;20422;-67
2022/03/31 06:18:29;;;;;;;6.63;4.25;;;3.90;99.90;;;;;;5029619;28;20049;-67
2022/03/31 06:20:54;;;;;;;6.57;4.40;;;3.90;99.90;;;;;;5028101;28;20406;-67
2022/03/31 06:23:20;;;;;;;6.78;4.97;;;3.80;99.90;;;;;;5014990;28;20034;-67
2022/03/31 06:25:45;;;;;;;7.03;5.00;;;3.80;99.90;;;;;;5013391;28;20176;-67
2022/03/31 06:28:13;;;;;;;6.70;4.38;;;3.80;99.90;;;;;;5014025;28;20034;-67
2022/03/31 06:30:39;;;;;;;6.35;4.40;;;3.80;99.90;;;;;;5024135;28;20033;-67
2022/03/31 06:33:05;;;;;;;6.20;4.35;;;3.90;99.90;;;;;;5012696;28;20529;-67
2022/03/31 06:35:30;;;;;;;6.45;4.43;;;3.90;99.90;;;;;;5030600;28;20042;-67
2022/03/31 06:37:56;;;;;;;6.45;4.45;;;3.90;99.90;;;;;;5030992;28;20048;-67
2022/03/31 06:40:21;;;;;;;6.65;4.60;;;4.00;99.90;;;;;;5032332;28;20556;-67
2022/03/31 06:42:47;;;;;;;6.68;4.57;;;4.00;99.90;;;;;;5033404;28;20068;-67
2022/03/31 06:45:16;;;;;;;5.72;3.70;;;4.00;99.90;;;;;;5016528;28;20485;-67
2022/03/31 06:47:43;;;;;;;6.47;4.55;;;4.00;99.90;;;;;;5016540;28;20033;-67
2022/03/31 06:50:10;;;;;;;6.57;4.15;;;4.00;99.90;;;;;;5029373;28;20112;-67
2022/03/31 06:52:36;;;;;;;5.90;3.75;;;3.90;99.90;;;;;;5032662;28;20107;-67
2022/03/31 06:55:02;;;;;;;6.88;4.50;;;4.00;99.90;;;;;;5032469;28;20080;-67
2022/03/31 06:57:27;;;;;;;6.22;4.22;;;3.80;99.90;;;;;;5031871;28;20091;-67
2022/03/31 06:59:53;;;;;;;6.53;4.40;;;3.80;99.90;;;;;;5031665;28;20048;-67
2022/03/31 07:02:19;;;;;;;5.82;4.05;;;3.80;99.90;;;;;;5014739;28;20060;-67
2022/03/31 07:04:44;;;;;;;6.15;4.18;;;3.90;99.90;;;;;;5019984;28;20037;-67
2022/03/31 07:07:10;;;;;;;6.60;4.30;;;3.90;99.90;;;;;;5030580;28;20454;-67
2022/03/31 07:09:35;;;;;;;6.72;4.70;;;3.80;99.90;;;;;;5048769;28;20041;-67
2022/03/31 07:12:01;;;;;;;7.57;5.20;;;4.00;99.90;;;;;;5018179;28;20521;-68
2022/03/31 07:14:26;;;;;;;6.97;4.70;;;4.00;99.90;;;;;;5021336;28;20513;-67
2022/03/31 07:16:52;;;;;;;7.50;5.18;;;4.00;99.90;;;;;;5032111;28;20041;-68
2022/03/31 07:19:18;;;;;;;7.78;5.38;;;3.90;99.90;;;;;;5031560;28;20037;-67
2022/03/31 07:21:44;;;;;;;7.82;5.30;;;3.90;99.90;;;;;;5018734;28;20125;-67
2022/03/31 07:24:09;;;;;;;8.30;5.10;;;3.90;99.90;;;;;;5012847;28;20157;-67
2022/03/31 07:26:35;;;;;;;7.80;5.28;;;3.90;99.90;;;;;;5031796;28;20040;-67
2022/03/31 07:29:01;;;;;;;8.07;5.30;;;4.00;99.90;;;;;;5032508;28;20048;-67
2022/03/31 07:31:28;;;;;;;7.30;5.13;;;4.00;99.90;;;;;;5011942;28;20489;-67
2022/03/31 07:33:54;;;;;;;7.40;5.32;;;3.90;99.90;;;;;;5009539;28;20072;-67
2022/03/31 07:36:20;;;;;;;8.05;5.53;;;3.90;99.90;;;;;;5047833;28;20072;-67
2022/03/31 07:38:46;;;;;;;7.68;5.82;;;3.90;99.90;;;;;;5032740;28;20068;-67
2022/03/31 07:41:13;;;;;;;7.72;5.70;;;3.90;99.90;;;;;;5030987;28;20099;-67
2022/03/31 07:43:39;;;;;;;7.75;5.25;;;3.80;99.90;;;;;;5031971;28;20042;-67
2022/03/31 07:46:05;;;;;;;7.45;5.30;;;3.80;99.90;;;;;;5029929;28;20617;-67
2022/03/31 07:48:31;;;;;;;7.97;5.53;;;3.90;99.90;;;;;;5032206;28;20044;-67
2022/03/31 07:50:58;;;;;;;7.00;4.70;;;3.90;99.90;;;;;;5013806;28;20402;-67
2022/03/31 07:53:25;;;;;;;7.82;5.63;;;4.00;99.90;;;;;;5015194;28;20059;-67
2022/03/31 07:55:51;;;;;;;7.35;5.80;;;3.90;99.90;;;;;;5031118;28;20195;-67
2022/03/31 07:58:16;;;;;;;7.43;5.32;;;3.90;99.90;;;;;;5032084;28;20179;-67
2022/03/31 08:00:42;;;;;;;7.85;5.72;;;4.00;99.90;;;;;;5030525;28;20512;-67
2022/03/31 08:03:08;;;;;;;7.38;5.03;;;3.90;99.90;;;;;;5031744;28;20041;-67
2022/03/31 08:05:37;;;;;;;7.97;5.45;;;3.90;99.90;;;;;;5029735;28;20033;-67
2022/03/31 08:08:03;;;;;;;7.70;5.45;;;4.00;99.90;;;;;;5015500;28;20037;-67
2022/03/31 08:10:29;;;;;;;7.53;5.05;;;3.90;99.90;;;;;;5029884;28;20046;-66
2022/03/31 08:12:55;;;;;;;7.50;5.28;;;4.00;99.90;;;;;;5032201;28;20037;-66
2022/03/31 08:15:23;;;;;;;7.15;4.93;;;4.00;99.90;;;;;;5047117;28;20041;-67
2022/03/31 08:17:49;;;;;;;7.57;5.57;;;4.00;99.90;;;;;;5031506;28;20041;-67
2022/03/31 08:20:15;;;;;;;8.02;5.55;;;4.00;99.90;;;;;;5030924;28;20379;-67
2022/03/31 08:22:41;;;;;;;7.97;5.55;;;3.90;99.90;;;;;;5031201;28;20560;-66
2022/03/31 08:25:08;;;;;;;8.02;4.97;;;3.90;99.90;;;;;;5020886;28;20042;-67
2022/03/31 08:27:35;;;;;;;7.88;5.25;;;3.90;99.90;;;;;;4995677;28;20041;-67
2022/03/31 08:30:06;;;;;;;6.03;3.58;;;3.90;99.90;;;;;;5023137;28;20475;-66
2022/03/31 08:32:36;;;;;;;6.70;3.70;;;3.90;99.90;;;;;;5011497;28;20053;-66
2022/03/31 08:35:06;;;;;;;6.65;3.83;;;4.00;99.90;;;;;;5024222;28;20047;-66
2022/03/31 08:37:32;;;;;;;6.50;3.75;;;3.90;99.90;;;;;;5031317;28;20132;-66
2022/03/31 08:39:57;;;;;;;5.88;3.88;;;3.80;99.90;;;;;;5012106;28;20568;-66
2022/03/31 08:42:23;;;;;;;6.13;3.42;;;3.80;99.90;;;;;;5014131;28;20034;-67
2022/03/31 08:44:51;;;;;;;5.60;3.17;;;3.80;99.90;;;;;;5014014;28;20072;-67
2022/03/31 08:47:18;;;;;;;7.75;3.53;;;3.70;99.90;;;;;;5031173;28;20046;-67
2022/03/31 08:49:46;;;;;;;6.43;3.28;;;3.70;99.90;;;;;;5014825;28;20049;-66
2022/03/31 08:52:11;;;;;;;5.38;2.88;;;3.70;99.90;;;;;;5030314;28;20155;-66
2022/03/31 08:54:37;;;;;;;5.53;3.13;;;3.80;99.90;;;;;;5030801;28;20092;-66
2022/03/31 08:57:04;;;;;;;6.25;3.10;;;3.80;99.90;;;;;;5028254;28;20041;-67
2022/03/31 08:59:29;;;;;;;5.20;3.03;;;3.80;99.90;;;;;;5025033;28;20041;-66
2022/03/31 09:01:55;;;;;;;6.10;3.38;;;3.70;99.90;;;;;;5028954;28;20398;-66
2022/03/31 09:04:22;;;;;;;5.05;2.80;;;3.60;99.90;;;;;;5013489;28;20063;-66
2022/03/31 09:07:02;;;;;;;4.50;2.75;;;3.50;99.90;;;;;;5046547;28;20041;-66
2022/03/31 09:09:28;;;;;;;4.93;2.65;;;3.70;99.90;;;;;;5015093;28;20042;-66
2022/03/31 09:11:53;;;;;;;5.03;2.90;;;3.70;99.90;;;;;;5046889;28;20069;-66
2022/03/31 09:14:29;;;;;;;6.07;3.38;;;3.60;99.90;;;;;;5028745;28;20088;-66
2022/03/31 09:16:54;;;;;;;6.32;3.20;;;3.60;99.90;;;;;;5048887;28;20045;-67
2022/03/31 09:19:20;;;;;;;6.68;3.45;;;3.60;99.90;;;;;;5031983;28;20045;-67
2022/03/31 09:21:54;;;;;;;6.00;3.70;;;3.50;99.90;;;;;;5014603;28;20052;-66
2022/03/31 09:24:24;;;;;;;6.68;3.90;;;3.40;99.90;;;;;;5016862;28;20048;-66
2022/03/31 09:26:50;;;;;;;5.18;3.10;;;3.30;99.90;;;;;;5033625;28;20049;-66
2022/03/31 09:29:20;;;;;;;6.82;4.32;;;3.40;99.90;;;;;;5033933;28;20406;-67
2022/03/31 09:31:51;;;;;;;6.78;4.13;;;3.30;99.90;;;;;;5030978;28;20127;-66
2022/03/31 09:34:18;;;;;;;6.83;4.20;;;3.30;99.90;;;;;;5050766;28;20049;-66
2022/03/31 09:36:52;;;;;;;7.63;4.70;;;3.20;99.90;;;;;;5034832;28;20272;-66
2022/03/31 09:39:20;;;;;;;7.70;4.90;;;3.30;99.90;;;;;;5032152;28;20041;-66
2022/03/31 09:41:48;;;;;;;7.50;4.95;;;3.20;99.90;;;;;;5029626;28;20405;-66
2022/03/31 09:44:19;;;;;;;7.32;4.78;;;3.20;99.90;;;;;;5032432;28;20042;-66
2022/03/31 09:46:46;;;;;;;8.18;4.85;;;3.20;99.90;;;;;;5016858;28;20087;-66
2022/03/31 09:49:16;;;;;;;7.35;4.57;;;3.30;99.90;;;;;;5031486;28;20065;-66
2022/03/31 09:51:43;;;;;;;7.88;5.00;;;3.20;99.90;;;;;;5034090;28;20128;-67
2022/03/31 09:54:09;;;;;;;7.70;4.90;;;3.20;99.90;;;;;;5032334;28;20049;-66
2022/03/31 09:56:38;;;;;;;7.63;4.40;;;3.30;99.90;;;;;;5032447;28;20053;-66
2022/03/31 09:59:07;;;;;;;6.93;4.68;;;3.20;99.90;;;;;;5032218;28;20045;-67
2022/03/31 10:01:33;;;;;;;8.60;5.50;;;3.20;99.90;;;;;;5017534;28;20395;-66
2022/03/31 10:03:59;;;;;;;10.07;5.82;;;3.00;99.90;;;;;;5035205;28;20045;-67
2022/03/31 10:06:26;;;;;;;8.02;4.57;;;2.90;99.90;;;;;;5014040;28;20033;-67
2022/03/31 10:08:53;;;;;;;8.48;5.03;;;2.90;99.90;;;;;;5031091;28;20083;-67
2022/03/31 10:11:21;;;;;;;8.73;5.45;;;3.00;99.90;;;;;;5032215;28;20443;-67
2022/03/31 10:14:04;;;;;;;8.70;5.45;;;2.80;99.90;;;;;;5032701;28;20037;-66
2022/03/31 10:16:38;;;;;;;8.23;5.20;;;2.80;99.90;;;;;;5033763;28;20053;-67
2022/03/31 10:19:03;;;;;;;7.55;4.63;;;2.80;99.90;;;;;;5028410;28;20046;-67
2022/03/31 10:21:30;;;;;;;7.90;4.85;;;2.80;99.90;;;;;;5047011;28;20421;-66
2022/03/31 10:26:41;;;;;;;7.82;4.57;;;2.80;99.90;;;;;;5031773;28;20049;-66
2022/03/31 10:29:13;;;;;;;7.47;4.47;;;2.70;99.90;;;;;;5031421;28;20117;-66
2022/03/31 10:31:41;;;;;;;7.25;4.45;;;2.70;99.90;;;;;;5028996;28;20398;-66
2022/03/31 10:34:08;;;;;;;7.25;3.90;;;2.80;99.90;;;;;;5008513;28;20041;-67
2022/03/31 10:36:47;;;;;;;8.55;4.13;;;2.70;99.90;;;;;;5011307;28;20174;-66
2022/03/31 10:39:24;;;;;;;8.80;5.18;;;2.70;99.90;;;;;;5033439;28;20184;-66
2022/03/31 10:42:04;;;;;;;9.23;5.53;;;2.60;99.90;;;;;;5027849;28;20584;-67
2022/03/31 10:44:30;;;;;;;10.38;6.40;;;2.60;99.90;;;;;;5027413;28;20044;-66
2022/03/31 10:47:14;;;;;;;11.45;7.15;;;2.50;99.90;;;;;;5028045;28;20025;-66
2022/03/31 10:49:52;;;;;;;11.82;7.35;;;2.60;99.90;;;;;;5008559;28;20081;-66
2022/03/31 10:52:23;;;;;;;12.25;7.70;;;2.60;99.90;;;;;;5026877;28;20048;-66
2022/03/31 10:54:51;;;;;;;12.27;8.18;;;2.60;99.90;;;;;;5030715;28;20053;-67
2022/03/31 10:57:17;;;;;;;11.60;7.07;;;2.60;99.90;;;;;;5027161;28;20393;-66
2022/03/31 10:59:47;;;;;;;10.77;7.30;;;2.80;99.90;;;;;;5010718;28;20136;-66
2022/03/31 11:02:14;;;;;;;11.90;7.03;;;2.70;99.90;;;;;;5041582;28;20037;-66
2022/03/31 11:04:50;;;;;;;11.23;6.93;;;2.70;99.90;;;;;;5030088;28;20037;-66
2022/03/31 11:07:18;;;;;;;11.85;8.15;;;2.60;99.90;;;;;;5027696;28;20489;-67
2022/03/31 11:09:44;;;;;;;13.48;8.15;;;2.50;99.90;;;;;;5047380;28;20037;-66
2022/03/31 11:12:26;;;;;;;11.10;7.30;;;2.40;99.90;;;;;;5032034;28;20414;-66
2022/03/31 11:15:00;;;;;;;10.27;6.20;;;2.50;99.90;;;;;;5013847;28;20044;-66
2022/03/31 11:17:30;;;;;;;10.27;6.55;;;2.60;99.90;;;;;;5032573;28;20494;-66
2022/03/31 11:19:57;;;;;;;9.77;6.20;;;2.60;99.90;;;;;;5031992;28;20037;-66
2022/03/31 11:22:26;;;;;;;9.00;5.55;;;2.70;99.90;;;;;;5015984;28;20033;-67
2022/03/31 11:24:54;;;;;;;8.48;5.28;;;2.60;99.90;;;;;;5014627;28;20041;-66
2022/03/31 11:27:50;;;;;;;7.47;4.40;;;2.60;99.90;;;;;;5015300;28;20069;-66
2022/03/31 11:30:22;;;;;;;7.65;4.47;;;2.50;99.90;;;;;;5031594;28;20049;-67
2022/03/31 11:32:52;;;;;;;7.18;4.60;;;2.40;99.90;;;;;;5031175;28;20490;-66
2022/03/31 11:35:20;;;;;;;7.47;4.05;;;2.30;99.90;;;;;;5031366;28;20079;-67
2022/03/31 11:37:51;;;;;;;6.75;4.15;;;2.40;99.90;;;;;;5015339;28;20085;-67
2022/03/31 11:40:21;;;;;;;7.45;4.80;;;2.40;99.90;;;;;;5030904;28;20045;-66
2022/03/31 11:42:48;;;;;;;6.50;3.88;;;2.30;99.90;;;;;;5044347;28;20080;-67
2022/03/31 11:45:38;;;;;;;7.13;4.65;;;2.30;99.90;;;;;;5012727;28;20060;-66
2022/03/31 11:48:13;;;;;;;6.93;4.13;;;2.30;99.90;;;;;;5012625;28;20042;-66
2022/03/31 11:50:56;;;;;;;6.35;4.07;;;2.40;99.90;;;;;;5000268;28;20390;-66
2022/03/31 11:53:26;;;;;;;7.63;4.55;;;2.20;99.90;;;;;;5029975;28;20076;-67
2022/03/31 11:56:21;;;;;;;8.70;5.47;;;2.20;99.90;;;;;;5031821;28;20128;-66
2022/03/31 11:58:52;;;;;;;8.55;5.07;;;2.20;99.90;;;;;;5010241;28;20088;-66
2022/03/31 12:01:37;;;;;;;8.35;4.88;;;2.30;99.90;;;;;;5047636;28;20034;-67
2022/03/31 12:04:04;;;;;;;8.45;5.32;;;2.30;99.90;;;;;;5026509;28;20501;-67
2022/03/31 12:06:33;;;;;;;9.68;5.95;;;2.40;99.90;;;;;;5029621;28;20041;-66
2022/03/31 12:08:59;;;;;;;9.75;6.68;;;2.30;99.90;;;;;;5015240;28;20037;-66
2022/03/31 12:11:25;;;;;;;8.88;6.15;;;2.30;99.90;;;;;;5032075;28;20037;-66
2022/03/31 12:13:55;;;;;;;9.05;6.15;;;2.30;99.90;;;;;;5031664;28;20051;-67
2022/03/31 12:16:22;;;;;;;9.50;6.53;;;2.30;99.90;;;;;;5031874;28;20047;-67
2022/03/31 12:18:59;;;;;;;9.50;6.65;;;2.30;99.90;;;;;;5031563;28;20041;-66
2022/03/31 12:21:26;;;;;;;9.60;6.47;;;2.30;99.90;;;;;;5014877;28;20037;-67
2022/03/31 12:23:52;;;;;;;9.63;6.95;;;2.30;99.90;;;;;;5029744;28;20084;-67
2022/03/31 12:26:22;;;;;;;10.18;6.35;;;2.10;99.90;;;;;;5013955;28;20064;-66
2022/03/31 12:28:48;;;;;;;9.85;6.43;;;2.10;99.90;;;;;;5022844;28;20064;-66
2022/03/31 12:31:29;;;;;;;10.82;6.03;;;2.20;99.90;;;;;;5031616;28;20067;-67
2022/03/31 12:33:56;;;;;;;9.40;6.93;;;2.20;99.90;;;;;;5031784;28;20041;-66
2022/03/31 12:36:27;;;;;;;9.50;6.32;;;2.30;99.90;;;;;;5014828;28;20041;-66
2022/03/31 12:38:55;;;;;;;9.48;5.35;;;2.30;99.90;;;;;;5033259;28;20042;-67
2022/03/31 12:41:24;;;;;;;9.48;6.13;;;2.40;99.90;;;;;;5047932;28;20053;-66
2022/03/31 12:44:04;;;;;;;8.75;5.72;;;2.30;99.90;;;;;;5031332;28;20517;-67
2022/03/31 12:46:38;;;;;;;9.05;5.55;;;2.40;99.90;;;;;;5031314;28;20049;-67
2022/03/31 12:49:08;;;;;;;10.00;7.10;;;2.40;99.90;;;;;;5031567;28;20047;-66
2022/03/31 12:52:02;;;;;;;11.20;8.27;;;2.40;99.90;;;;;;5033462;28;20375;-66
2022/03/31 12:54:38;;;;;;;10.50;7.72;;;2.30;99.90;;;;;;5032953;28;20401;-66
2022/03/31 12:57:21;;;;;;;11.40;7.95;;;2.30;99.90;;;;;;5018794;28;20287;-67
2022/03/31 13:00:10;;;;;;;13.00;9.90;;;2.30;99.90;;;;;;5019071;28;20048;-66
2022/03/31 13:02:37;;;;;;;12.15;9.55;;;2.40;99.90;;;;;;5018930;28;20037;-66
2022/03/31 13:05:04;;;;;;;13.32;9.30;;;2.40;99.90;;;;;;5035122;28;20045;-66
2022/03/31 13:07:30;;;;;;;12.40;8.80;;;2.30;99.90;;;;;;5019014;28;20405;-65
2022/03/31 13:09:57;;;;;;;12.82;9.15;;;2.30;99.90;;;;;;5035067;28;20033;-66
2022/03/31 13:12:26;;;;;;;13.82;8.73;;;2.30;99.90;;;;;;5017209;28;20080;-65
2022/03/31 13:14:52;;;;;;;12.00;7.95;;;2.30;99.90;;;;;;5033905;28;20045;-66
2022/03/31 13:17:19;;;;;;;13.07;8.80;;;2.50;99.90;;;;;;5018349;28;20037;-66